sensor_id;sensor_type;location;lat;lon;timestamp;P1;durP1;ratioP1;P2;durP2;ratioP2
9117;SDS011;4594;50.994;7.126;2023-09-19T00:01:41;1.73;;;1.63;;
9117;SDS011;4594;50.994;7.126;2023-09-19T00:04:10;2.20;;;2.03;;
9117;SDS011;4594;50.994;7.126;2023-09-19T00:06:40;2.20;;;2.00;;
9117;SDS011;4594;50.994;7.126;2023-09-19T00:09:06;11.33;;;2.23;;
9117;SDS011;4594;50.994;7.126;2023-09-19T00:11:35;1.93;;;1.80;;
9117;SDS011;4594;50.994;7.126;2023-09-19T00:14:03;4.93;;;2.10;;
9117;SDS011;4594;50.994;7.126;2023-09-19T00:16:30;2.90;;;2.03;;
9117;SDS011;4594;50.994;7.126;2023-09-19T00:18:57;3.93;;;2.20;;
9117;SDS011;4594;50.994;7.126;2023-09-19T00:21:24;2.20;;;2.10;;
9117;SDS011;4594;50.994;7.126;2023-09-19T00:23:50;9.20;;;2.03;;
9117;SDS011;4594;50.994;7.126;2023-09-19T00:26:16;5.03;;;1.90;;
9117;SDS011;4594;50.994;7.126;2023-09-19T00:28:43;2.60;;;1.80;;
9117;SDS011;4594;50.994;7.126;2023-09-19T00:31:10;2.63;;;1.90;;
9117;SDS011;4594;50.994;7.126;2023-09-19T00:33:35;2.80;;;2.00;;
9117;SDS011;4594;50.994;7.126;2023-09-19T00:36:01;7.03;;;2.37;;
9117;SDS011;4594;50.994;7.126;2023-09-19T00:38:30;5.27;;;1.97;;
9117;SDS011;4594;50.994;7.126;2023-09-19T00:40:57;1.93;;;1.80;;
9117;SDS011;4594;50.994;7.126;2023-09-19T00:43:24;2.17;;;1.97;;
9117;SDS011;4594;50.994;7.126;2023-09-19T00:45:52;3.43;;;1.83;;
9117;SDS011;4594;50.994;7.126;2023-09-19T00:48:21;3.77;;;1.73;;
9117;SDS011;4594;50.994;7.126;2023-09-19T00:50:50;4.87;;;2.10;;
9117;SDS011;4594;50.994;7.126;2023-09-19T00:53:18;2.30;;;2.10;;
9117;SDS011;4594;50.994;7.126;2023-09-19T00:55:48;5.97;;;2.17;;
9117;SDS011;4594;50.994;7.126;2023-09-19T00:58:16;2.40;;;2.30;;
9117;SDS011;4594;50.994;7.126;2023-09-19T01:00:43;2.10;;;1.97;;
9117;SDS011;4594;50.994;7.126;2023-09-19T01:03:11;2.10;;;1.90;;
9117;SDS011;4594;50.994;7.126;2023-09-19T01:05:38;3.20;;;2.30;;
9117;SDS011;4594;50.994;7.126;2023-09-19T01:08:05;2.30;;;2.10;;
9117;SDS011;4594;50.994;7.126;2023-09-19T01:10:32;4.07;;;2.07;;
9117;SDS011;4594;50.994;7.126;2023-09-19T01:13:02;4.80;;;2.50;;
9117;SDS011;4594;50.994;7.126;2023-09-19T01:15:49;6.53;;;2.60;;
9117;SDS011;4594;50.994;7.126;2023-09-19T01:30:34;1.90;;;1.80;;
9117;SDS011;4594;50.994;7.126;2023-09-19T01:33:08;3.57;;;2.13;;
9117;SDS011;4594;50.994;7.126;2023-09-19T01:35:37;4.30;;;2.40;;
9117;SDS011;4594;50.994;7.126;2023-09-19T01:38:04;2.10;;;1.90;;
9117;SDS011;4594;50.994;7.126;2023-09-19T01:40:39;3.80;;;2.20;;
9117;SDS011;4594;50.994;7.126;2023-09-19T01:43:12;6.57;;;1.90;;
9117;SDS011;4594;50.994;7.126;2023-09-19T01:48:41;2.40;;;1.90;;
9117;SDS011;4594;50.994;7.126;2023-09-19T01:51:55;3.63;;;2.33;;
9117;SDS011;4594;50.994;7.126;2023-09-19T01:54:36;2.93;;;2.10;;
9117;SDS011;4594;50.994;7.126;2023-09-19T01:59:50;2.33;;;1.93;;
9117;SDS011;4594;50.994;7.126;2023-09-19T02:02:26;2.07;;;1.83;;
9117;SDS011;4594;50.994;7.126;2023-09-19T02:04:54;2.60;;;2.20;;
9117;SDS011;4594;50.994;7.126;2023-09-19T02:07:22;3.90;;;2.20;;
9117;SDS011;4594;50.994;7.126;2023-09-19T02:09:47;5.67;;;2.50;;
9117;SDS011;4594;50.994;7.126;2023-09-19T02:12:13;2.30;;;2.00;;
9117;SDS011;4594;50.994;7.126;2023-09-19T02:14:40;4.07;;;2.27;;
9117;SDS011;4594;50.994;7.126;2023-09-19T02:17:05;4.93;;;2.40;;
9117;SDS011;4594;50.994;7.126;2023-09-19T02:19:32;3.57;;;2.00;;
9117;SDS011;4594;50.994;7.126;2023-09-19T02:21:58;3.90;;;2.00;;
9117;SDS011;4594;50.994;7.126;2023-09-19T02:24:28;3.17;;;2.10;;
9117;SDS011;4594;50.994;7.126;2023-09-19T02:26:54;4.93;;;2.03;;
9117;SDS011;4594;50.994;7.126;2023-09-19T02:29:20;4.93;;;2.50;;
9117;SDS011;4594;50.994;7.126;2023-09-19T02:31:47;5.30;;;2.73;;
9117;SDS011;4594;50.994;7.126;2023-09-19T02:34:12;3.77;;;2.17;;
9117;SDS011;4594;50.994;7.126;2023-09-19T02:36:38;7.13;;;2.30;;
9117;SDS011;4594;50.994;7.126;2023-09-19T02:39:04;4.03;;;2.00;;
9117;SDS011;4594;50.994;7.126;2023-09-19T02:41:31;2.93;;;2.33;;
9117;SDS011;4594;50.994;7.126;2023-09-19T02:43:58;4.07;;;2.40;;
9117;SDS011;4594;50.994;7.126;2023-09-19T02:46:24;4.67;;;2.30;;
9117;SDS011;4594;50.994;7.126;2023-09-19T02:48:50;4.30;;;2.20;;
9117;SDS011;4594;50.994;7.126;2023-09-19T02:51:15;4.63;;;2.03;;
9117;SDS011;4594;50.994;7.126;2023-09-19T02:53:41;5.60;;;2.30;;
9117;SDS011;4594;50.994;7.126;2023-09-19T02:56:07;3.93;;;2.10;;
9117;SDS011;4594;50.994;7.126;2023-09-19T02:58:34;5.67;;;2.57;;
9117;SDS011;4594;50.994;7.126;2023-09-19T03:01:07;4.37;;;2.17;;
9117;SDS011;4594;50.994;7.126;2023-09-19T03:03:39;4.63;;;2.40;;
9117;SDS011;4594;50.994;7.126;2023-09-19T03:06:06;3.40;;;2.00;;
9117;SDS011;4594;50.994;7.126;2023-09-19T03:08:34;3.03;;;2.00;;
9117;SDS011;4594;50.994;7.126;2023-09-19T03:11:07;6.57;;;2.30;;
9117;SDS011;4594;50.994;7.126;2023-09-19T03:13:36;2.60;;;2.03;;
9117;SDS011;4594;50.994;7.126;2023-09-19T03:16:03;5.00;;;2.47;;
9117;SDS011;4594;50.994;7.126;2023-09-19T03:18:35;4.50;;;2.67;;
9117;SDS011;4594;50.994;7.126;2023-09-19T03:21:01;4.93;;;2.67;;
9117;SDS011;4594;50.994;7.126;2023-09-19T03:23:28;4.70;;;2.50;;
9117;SDS011;4594;50.994;7.126;2023-09-19T03:25:55;8.30;;;2.37;;
9117;SDS011;4594;50.994;7.126;2023-09-19T03:28:21;8.73;;;3.20;;
9117;SDS011;4594;50.994;7.126;2023-09-19T03:30:57;6.13;;;2.40;;
9117;SDS011;4594;50.994;7.126;2023-09-19T03:33:25;6.37;;;2.50;;
9117;SDS011;4594;50.994;7.126;2023-09-19T03:35:54;5.33;;;2.33;;
9117;SDS011;4594;50.994;7.126;2023-09-19T03:38:20;8.60;;;2.77;;
9117;SDS011;4594;50.994;7.126;2023-09-19T03:40:47;7.13;;;2.30;;
9117;SDS011;4594;50.994;7.126;2023-09-19T03:43:13;6.33;;;2.47;;
9117;SDS011;4594;50.994;7.126;2023-09-19T03:45:39;3.47;;;2.30;;
9117;SDS011;4594;50.994;7.126;2023-09-19T03:48:09;5.13;;;2.47;;
9117;SDS011;4594;50.994;7.126;2023-09-19T03:50:35;6.33;;;2.33;;
9117;SDS011;4594;50.994;7.126;2023-09-19T03:53:01;8.00;;;2.47;;
9117;SDS011;4594;50.994;7.126;2023-09-19T03:55:27;2.30;;;2.10;;
9117;SDS011;4594;50.994;7.126;2023-09-19T03:57:55;6.17;;;2.50;;
9117;SDS011;4594;50.994;7.126;2023-09-19T04:00:21;5.67;;;2.60;;
9117;SDS011;4594;50.994;7.126;2023-09-19T04:02:49;6.90;;;3.00;;
9117;SDS011;4594;50.994;7.126;2023-09-19T04:05:17;6.07;;;2.07;;
9117;SDS011;4594;50.994;7.126;2023-09-19T04:07:44;6.73;;;2.60;;
9117;SDS011;4594;50.994;7.126;2023-09-19T04:10:10;5.43;;;2.30;;
9117;SDS011;4594;50.994;7.126;2023-09-19T04:12:39;4.17;;;2.60;;
9117;SDS011;4594;50.994;7.126;2023-09-19T04:15:06;4.70;;;2.50;;
9117;SDS011;4594;50.994;7.126;2023-09-19T04:17:33;7.07;;;2.57;;
9117;SDS011;4594;50.994;7.126;2023-09-19T04:19:59;7.93;;;3.07;;
9117;SDS011;4594;50.994;7.126;2023-09-19T04:22:25;4.30;;;2.37;;
9117;SDS011;4594;50.994;7.126;2023-09-19T04:24:51;4.23;;;2.60;;
9117;SDS011;4594;50.994;7.126;2023-09-19T04:27:17;4.43;;;2.40;;
9117;SDS011;4594;50.994;7.126;2023-09-19T04:29:43;5.20;;;2.40;;
9117;SDS011;4594;50.994;7.126;2023-09-19T04:32:09;4.67;;;2.30;;
9117;SDS011;4594;50.994;7.126;2023-09-19T04:34:35;5.30;;;2.50;;
9117;SDS011;4594;50.994;7.126;2023-09-19T04:37:03;5.10;;;2.53;;
9117;SDS011;4594;50.994;7.126;2023-09-19T04:39:29;5.27;;;2.30;;
9117;SDS011;4594;50.994;7.126;2023-09-19T04:41:55;6.20;;;2.60;;
9117;SDS011;4594;50.994;7.126;2023-09-19T04:44:20;3.13;;;2.33;;
9117;SDS011;4594;50.994;7.126;2023-09-19T04:46:46;7.73;;;2.47;;
9117;SDS011;4594;50.994;7.126;2023-09-19T04:49:12;8.10;;;2.73;;
9117;SDS011;4594;50.994;7.126;2023-09-19T04:51:38;4.13;;;2.50;;
9117;SDS011;4594;50.994;7.126;2023-09-19T04:54:05;3.00;;;2.20;;
9117;SDS011;4594;50.994;7.126;2023-09-19T04:56:31;8.13;;;2.30;;
9117;SDS011;4594;50.994;7.126;2023-09-19T04:58:58;3.00;;;2.40;;
9117;SDS011;4594;50.994;7.126;2023-09-19T05:01:25;5.97;;;2.47;;
9117;SDS011;4594;50.994;7.126;2023-09-19T05:03:51;8.37;;;2.30;;
9117;SDS011;4594;50.994;7.126;2023-09-19T05:06:21;5.23;;;2.60;;
9117;SDS011;4594;50.994;7.126;2023-09-19T05:08:47;4.20;;;2.53;;
9117;SDS011;4594;50.994;7.126;2023-09-19T05:11:20;5.33;;;2.83;;
9117;SDS011;4594;50.994;7.126;2023-09-19T05:13:48;4.47;;;2.70;;
9117;SDS011;4594;50.994;7.126;2023-09-19T05:16:18;5.47;;;2.37;;
9117;SDS011;4594;50.994;7.126;2023-09-19T05:18:44;7.23;;;2.27;;
9117;SDS011;4594;50.994;7.126;2023-09-19T05:21:09;8.03;;;2.63;;
9117;SDS011;4594;50.994;7.126;2023-09-19T05:23:35;4.73;;;2.40;;
9117;SDS011;4594;50.994;7.126;2023-09-19T05:26:02;4.57;;;2.50;;
9117;SDS011;4594;50.994;7.126;2023-09-19T05:28:29;2.57;;;2.30;;
9117;SDS011;4594;50.994;7.126;2023-09-19T05:30:55;4.37;;;2.73;;
9117;SDS011;4594;50.994;7.126;2023-09-19T05:33:20;7.47;;;2.57;;
9117;SDS011;4594;50.994;7.126;2023-09-19T05:35:49;5.73;;;2.40;;
9117;SDS011;4594;50.994;7.126;2023-09-19T05:38:15;3.90;;;3.00;;
9117;SDS011;4594;50.994;7.126;2023-09-19T05:40:44;3.03;;;2.07;;
9117;SDS011;4594;50.994;7.126;2023-09-19T05:43:10;5.00;;;2.47;;
9117;SDS011;4594;50.994;7.126;2023-09-19T05:45:36;4.83;;;2.60;;
9117;SDS011;4594;50.994;7.126;2023-09-19T05:48:09;4.77;;;2.57;;
9117;SDS011;4594;50.994;7.126;2023-09-19T05:50:41;7.40;;;3.13;;
9117;SDS011;4594;50.994;7.126;2023-09-19T05:53:07;4.00;;;2.57;;
9117;SDS011;4594;50.994;7.126;2023-09-19T05:55:36;18.20;;;3.87;;
9117;SDS011;4594;50.994;7.126;2023-09-19T05:58:02;6.57;;;2.40;;
9117;SDS011;4594;50.994;7.126;2023-09-19T06:00:28;4.00;;;2.37;;
9117;SDS011;4594;50.994;7.126;2023-09-19T06:02:57;4.80;;;2.67;;
9117;SDS011;4594;50.994;7.126;2023-09-19T06:05:25;6.47;;;2.60;;
9117;SDS011;4594;50.994;7.126;2023-09-19T06:07:52;7.30;;;2.63;;
9117;SDS011;4594;50.994;7.126;2023-09-19T06:10:19;6.03;;;2.73;;
9117;SDS011;4594;50.994;7.126;2023-09-19T06:12:46;8.17;;;2.97;;
9117;SDS011;4594;50.994;7.126;2023-09-19T06:15:12;3.33;;;2.37;;
9117;SDS011;4594;50.994;7.126;2023-09-19T06:17:53;3.00;;;2.23;;
9117;SDS011;4594;50.994;7.126;2023-09-19T06:20:21;7.53;;;3.10;;
9117;SDS011;4594;50.994;7.126;2023-09-19T06:22:50;4.27;;;2.50;;
9117;SDS011;4594;50.994;7.126;2023-09-19T06:25:18;5.57;;;2.30;;
9117;SDS011;4594;50.994;7.126;2023-09-19T06:27:53;6.17;;;2.60;;
9117;SDS011;4594;50.994;7.126;2023-09-19T06:30:20;9.23;;;2.97;;
9117;SDS011;4594;50.994;7.126;2023-09-19T06:32:48;3.87;;;2.47;;
9117;SDS011;4594;50.994;7.126;2023-09-19T06:35:15;3.63;;;3.10;;
9117;SDS011;4594;50.994;7.126;2023-09-19T06:37:41;6.07;;;2.90;;
9117;SDS011;4594;50.994;7.126;2023-09-19T06:40:12;7.67;;;3.27;;
9117;SDS011;4594;50.994;7.126;2023-09-19T06:42:51;7.40;;;3.00;;
9117;SDS011;4594;50.994;7.126;2023-09-19T06:45:18;5.33;;;2.77;;
9117;SDS011;4594;50.994;7.126;2023-09-19T06:47:47;4.70;;;2.37;;
9117;SDS011;4594;50.994;7.126;2023-09-19T06:50:15;3.93;;;2.60;;
9117;SDS011;4594;50.994;7.126;2023-09-19T06:52:47;8.17;;;2.73;;
9117;SDS011;4594;50.994;7.126;2023-09-19T06:55:19;7.43;;;2.93;;
9117;SDS011;4594;50.994;7.126;2023-09-19T06:57:46;9.13;;;3.30;;
9117;SDS011;4594;50.994;7.126;2023-09-19T07:00:13;6.20;;;3.87;;
9117;SDS011;4594;50.994;7.126;2023-09-19T07:03:07;9.90;;;4.40;;
9117;SDS011;4594;50.994;7.126;2023-09-19T07:05:36;8.40;;;3.83;;
9117;SDS011;4594;50.994;7.126;2023-09-19T07:08:04;7.43;;;3.30;;
9117;SDS011;4594;50.994;7.126;2023-09-19T07:10:32;9.20;;;2.83;;
9117;SDS011;4594;50.994;7.126;2023-09-19T07:13:05;4.63;;;2.80;;
9117;SDS011;4594;50.994;7.126;2023-09-19T07:15:36;7.33;;;3.23;;
9117;SDS011;4594;50.994;7.126;2023-09-19T07:18:11;10.03;;;4.23;;
9117;SDS011;4594;50.994;7.126;2023-09-19T07:20:42;9.23;;;4.00;;
9117;SDS011;4594;50.994;7.126;2023-09-19T07:23:16;9.20;;;4.87;;
9117;SDS011;4594;50.994;7.126;2023-09-19T07:25:45;7.27;;;4.27;;
9117;SDS011;4594;50.994;7.126;2023-09-19T07:28:11;7.33;;;3.97;;
9117;SDS011;4594;50.994;7.126;2023-09-19T07:30:37;6.57;;;3.73;;
9117;SDS011;4594;50.994;7.126;2023-09-19T07:33:04;8.40;;;3.63;;
9117;SDS011;4594;50.994;7.126;2023-09-19T07:35:30;7.00;;;3.00;;
9117;SDS011;4594;50.994;7.126;2023-09-19T07:37:57;12.23;;;3.70;;
9117;SDS011;4594;50.994;7.126;2023-09-19T07:40:23;6.53;;;3.07;;
9117;SDS011;4594;50.994;7.126;2023-09-19T07:42:51;7.97;;;3.53;;
9117;SDS011;4594;50.994;7.126;2023-09-19T07:45:18;9.00;;;2.83;;
9117;SDS011;4594;50.994;7.126;2023-09-19T07:47:44;3.37;;;2.40;;
9117;SDS011;4594;50.994;7.126;2023-09-19T07:50:14;3.53;;;2.30;;
9117;SDS011;4594;50.994;7.126;2023-09-19T07:52:43;3.17;;;2.33;;
9117;SDS011;4594;50.994;7.126;2023-09-19T07:55:10;4.70;;;2.77;;
9117;SDS011;4594;50.994;7.126;2023-09-19T07:57:40;4.57;;;2.47;;
9117;SDS011;4594;50.994;7.126;2023-09-19T08:00:07;4.43;;;2.10;;
9117;SDS011;4594;50.994;7.126;2023-09-19T08:02:35;7.03;;;2.10;;
9117;SDS011;4594;50.994;7.126;2023-09-19T08:05:05;4.77;;;2.30;;
9117;SDS011;4594;50.994;7.126;2023-09-19T08:07:38;8.20;;;2.30;;
9117;SDS011;4594;50.994;7.126;2023-09-19T08:10:05;7.13;;;2.30;;
9117;SDS011;4594;50.994;7.126;2023-09-19T08:12:36;5.00;;;2.27;;
9117;SDS011;4594;50.994;7.126;2023-09-19T08:15:02;4.30;;;2.17;;
9117;SDS011;4594;50.994;7.126;2023-09-19T08:17:28;11.97;;;2.30;;
9117;SDS011;4594;50.994;7.126;2023-09-19T08:19:59;7.43;;;2.07;;
9117;SDS011;4594;50.994;7.126;2023-09-19T08:22:25;8.13;;;2.50;;
9117;SDS011;4594;50.994;7.126;2023-09-19T08:24:52;4.53;;;2.20;;
9117;SDS011;4594;50.994;7.126;2023-09-19T08:27:18;6.33;;;2.20;;
9117;SDS011;4594;50.994;7.126;2023-09-19T08:29:44;5.60;;;1.73;;
9117;SDS011;4594;50.994;7.126;2023-09-19T08:32:11;5.87;;;2.00;;
9117;SDS011;4594;50.994;7.126;2023-09-19T08:34:37;6.20;;;2.20;;
9117;SDS011;4594;50.994;7.126;2023-09-19T08:37:03;9.47;;;2.20;;
9117;SDS011;4594;50.994;7.126;2023-09-19T08:39:29;5.27;;;2.10;;
9117;SDS011;4594;50.994;7.126;2023-09-19T08:41:58;3.13;;;2.10;;
9117;SDS011;4594;50.994;7.126;2023-09-19T08:44:25;9.20;;;2.43;;
9117;SDS011;4594;50.994;7.126;2023-09-19T08:46:58;3.77;;;2.07;;
9117;SDS011;4594;50.994;7.126;2023-09-19T08:52:42;5.83;;;2.17;;
9117;SDS011;4594;50.994;7.126;2023-09-19T08:55:11;5.43;;;2.00;;
9117;SDS011;4594;50.994;7.126;2023-09-19T08:57:45;5.87;;;2.60;;
9117;SDS011;4594;50.994;7.126;2023-09-19T09:00:14;3.27;;;1.87;;
9117;SDS011;4594;50.994;7.126;2023-09-19T09:02:43;3.53;;;1.97;;
9117;SDS011;4594;50.994;7.126;2023-09-19T09:05:10;3.33;;;1.83;;
9117;SDS011;4594;50.994;7.126;2023-09-19T09:07:42;3.70;;;2.10;;
9117;SDS011;4594;50.994;7.126;2023-09-19T09:10:09;5.90;;;2.10;;
9117;SDS011;4594;50.994;7.126;2023-09-19T09:12:35;3.87;;;1.97;;
9117;SDS011;4594;50.994;7.126;2023-09-19T09:15:06;5.70;;;2.23;;
9117;SDS011;4594;50.994;7.126;2023-09-19T09:17:33;3.63;;;2.00;;
9117;SDS011;4594;50.994;7.126;2023-09-19T09:19:59;2.63;;;2.30;;
9117;SDS011;4594;50.994;7.126;2023-09-19T09:22:25;9.37;;;2.57;;
9117;SDS011;4594;50.994;7.126;2023-09-19T09:24:54;5.93;;;2.23;;
9117;SDS011;4594;50.994;7.126;2023-09-19T09:27:26;6.87;;;2.10;;
9117;SDS011;4594;50.994;7.126;2023-09-19T09:29:52;2.40;;;1.93;;
9117;SDS011;4594;50.994;7.126;2023-09-19T09:34:54;4.33;;;1.93;;
9117;SDS011;4594;50.994;7.126;2023-09-19T09:37:33;3.47;;;1.90;;
9117;SDS011;4594;50.994;7.126;2023-09-19T09:40:00;2.93;;;1.90;;
9117;SDS011;4594;50.994;7.126;2023-09-19T09:42:50;2.50;;;1.57;;
9117;SDS011;4594;50.994;7.126;2023-09-19T09:45:21;5.83;;;2.23;;
9117;SDS011;4594;50.994;7.126;2023-09-19T09:48:02;2.10;;;1.57;;
9117;SDS011;4594;50.994;7.126;2023-09-19T09:50:32;1.97;;;1.77;;
9117;SDS011;4594;50.994;7.126;2023-09-19T09:53:27;2.63;;;1.90;;
9117;SDS011;4594;50.994;7.126;2023-09-19T09:58:26;2.90;;;1.43;;
9117;SDS011;4594;50.994;7.126;2023-09-19T10:00:55;3.00;;;1.80;;
9117;SDS011;4594;50.994;7.126;2023-09-19T10:03:39;3.20;;;1.80;;
9117;SDS011;4594;50.994;7.126;2023-09-19T10:06:11;3.93;;;1.67;;
9117;SDS011;4594;50.994;7.126;2023-09-19T10:08:58;2.93;;;1.87;;
9117;SDS011;4594;50.994;7.126;2023-09-19T10:11:44;3.87;;;2.53;;
9117;SDS011;4594;50.994;7.126;2023-09-19T10:14:13;4.73;;;2.43;;
9117;SDS011;4594;50.994;7.126;2023-09-19T10:16:47;3.37;;;1.70;;
9117;SDS011;4594;50.994;7.126;2023-09-19T10:19:21;2.50;;;1.57;;
9117;SDS011;4594;50.994;7.126;2023-09-19T10:21:55;2.93;;;1.80;;
9117;SDS011;4594;50.994;7.126;2023-09-19T10:24:24;4.60;;;1.60;;
9117;SDS011;4594;50.994;7.126;2023-09-19T10:26:53;2.17;;;1.80;;
9117;SDS011;4594;50.994;7.126;2023-09-19T10:29:20;2.47;;;1.73;;
9117;SDS011;4594;50.994;7.126;2023-09-19T10:31:48;2.97;;;1.93;;
9117;SDS011;4594;50.994;7.126;2023-09-19T10:34:18;4.80;;;3.20;;
9117;SDS011;4594;50.994;7.126;2023-09-19T10:36:46;5.77;;;3.43;;
9117;SDS011;4594;50.994;7.126;2023-09-19T10:39:15;4.30;;;3.67;;
9117;SDS011;4594;50.994;7.126;2023-09-19T10:41:51;4.17;;;3.10;;
9117;SDS011;4594;50.994;7.126;2023-09-19T10:44:24;5.17;;;2.90;;
9117;SDS011;4594;50.994;7.126;2023-09-19T10:46:51;5.87;;;2.40;;
9117;SDS011;4594;50.994;7.126;2023-09-19T10:49:19;3.60;;;2.20;;
9117;SDS011;4594;50.994;7.126;2023-09-19T10:51:47;4.63;;;1.97;;
9117;SDS011;4594;50.994;7.126;2023-09-19T10:54:19;5.37;;;2.77;;
9117;SDS011;4594;50.994;7.126;2023-09-19T11:01:56;4.80;;;1.80;;
9117;SDS011;4594;50.994;7.126;2023-09-19T11:04:23;3.03;;;1.80;;
9117;SDS011;4594;50.994;7.126;2023-09-19T11:09:57;4.37;;;1.90;;
9117;SDS011;4594;50.994;7.126;2023-09-19T11:14:56;3.57;;;1.60;;
9117;SDS011;4594;50.994;7.126;2023-09-19T11:17:33;2.27;;;1.73;;
9117;SDS011;4594;50.994;7.126;2023-09-19T11:30:47;3.43;;;2.30;;
9117;SDS011;4594;50.994;7.126;2023-09-19T11:36:08;10.27;;;1.97;;
9117;SDS011;4594;50.994;7.126;2023-09-19T11:49:17;1.90;;;1.80;;
9117;SDS011;4594;50.994;7.126;2023-09-19T11:51:51;2.40;;;1.80;;
9117;SDS011;4594;50.994;7.126;2023-09-19T11:54:17;3.20;;;1.90;;
9117;SDS011;4594;50.994;7.126;2023-09-19T11:56:47;2.90;;;1.80;;
9117;SDS011;4594;50.994;7.126;2023-09-19T12:01:53;3.47;;;1.80;;
9117;SDS011;4594;50.994;7.126;2023-09-19T12:04:35;2.00;;;1.80;;
9117;SDS011;4594;50.994;7.126;2023-09-19T12:07:08;3.43;;;2.20;;
9117;SDS011;4594;50.994;7.126;2023-09-19T12:09:40;3.30;;;1.83;;
9117;SDS011;4594;50.994;7.126;2023-09-19T12:12:22;5.37;;;3.27;;
9117;SDS011;4594;50.994;7.126;2023-09-19T12:14:53;5.97;;;3.90;;
9117;SDS011;4594;50.994;7.126;2023-09-19T12:17:24;2.47;;;2.27;;
9117;SDS011;4594;50.994;7.126;2023-09-19T12:20:07;4.90;;;2.17;;
9117;SDS011;4594;50.994;7.126;2023-09-19T12:22:41;2.83;;;2.10;;
9117;SDS011;4594;50.994;7.126;2023-09-19T12:25:12;5.93;;;2.47;;
9117;SDS011;4594;50.994;7.126;2023-09-19T12:27:47;5.03;;;2.80;;
9117;SDS011;4594;50.994;7.126;2023-09-19T12:30:21;5.53;;;2.70;;
9117;SDS011;4594;50.994;7.126;2023-09-19T12:32:53;3.27;;;2.00;;
9117;SDS011;4594;50.994;7.126;2023-09-19T12:35:31;3.63;;;1.97;;
9117;SDS011;4594;50.994;7.126;2023-09-19T12:38:02;2.03;;;1.93;;
9117;SDS011;4594;50.994;7.126;2023-09-19T12:40:28;3.03;;;2.50;;
9117;SDS011;4594;50.994;7.126;2023-09-19T12:42:58;3.77;;;2.20;;
9117;SDS011;4594;50.994;7.126;2023-09-19T12:45:25;4.93;;;2.30;;
9117;SDS011;4594;50.994;7.126;2023-09-19T12:51:06;4.83;;;2.40;;
9117;SDS011;4594;50.994;7.126;2023-09-19T12:53:42;11.07;;;2.50;;
9117;SDS011;4594;50.994;7.126;2023-09-19T12:56:10;8.10;;;3.27;;
9117;SDS011;4594;50.994;7.126;2023-09-19T12:58:52;2.37;;;1.77;;
9117;SDS011;4594;50.994;7.126;2023-09-19T13:01:28;6.83;;;2.00;;
9117;SDS011;4594;50.994;7.126;2023-09-19T13:04:10;2.93;;;1.80;;
9117;SDS011;4594;50.994;7.126;2023-09-19T13:06:44;6.23;;;2.37;;
9117;SDS011;4594;50.994;7.126;2023-09-19T13:09:14;4.17;;;2.40;;
9117;SDS011;4594;50.994;7.126;2023-09-19T13:11:41;4.97;;;2.57;;
9117;SDS011;4594;50.994;7.126;2023-09-19T13:19:48;4.17;;;1.90;;
9117;SDS011;4594;50.994;7.126;2023-09-19T13:25:11;4.07;;;2.27;;
9117;SDS011;4594;50.994;7.126;2023-09-19T13:27:40;3.03;;;2.10;;
9117;SDS011;4594;50.994;7.126;2023-09-19T13:30:16;3.53;;;2.10;;
9117;SDS011;4594;50.994;7.126;2023-09-19T13:32:43;3.20;;;2.30;;
9117;SDS011;4594;50.994;7.126;2023-09-19T13:35:09;4.13;;;2.00;;
9117;SDS011;4594;50.994;7.126;2023-09-19T13:37:38;3.10;;;1.80;;
9117;SDS011;4594;50.994;7.126;2023-09-19T13:40:08;1.63;;;1.53;;
9117;SDS011;4594;50.994;7.126;2023-09-19T13:42:39;7.13;;;2.07;;
9117;SDS011;4594;50.994;7.126;2023-09-19T13:45:06;2.03;;;1.80;;
9117;SDS011;4594;50.994;7.126;2023-09-19T13:47:34;2.60;;;1.73;;
9117;SDS011;4594;50.994;7.126;2023-09-19T13:50:03;3.73;;;1.63;;
9117;SDS011;4594;50.994;7.126;2023-09-19T13:52:32;4.57;;;1.70;;
9117;SDS011;4594;50.994;7.126;2023-09-19T13:54:59;7.10;;;3.27;;
9117;SDS011;4594;50.994;7.126;2023-09-19T13:57:25;4.60;;;3.63;;
9117;SDS011;4594;50.994;7.126;2023-09-19T13:59:52;6.77;;;2.83;;
9117;SDS011;4594;50.994;7.126;2023-09-19T14:02:19;4.30;;;2.40;;
9117;SDS011;4594;50.994;7.126;2023-09-19T14:04:49;2.50;;;1.90;;
9117;SDS011;4594;50.994;7.126;2023-09-19T14:07:17;2.30;;;1.53;;
9117;SDS011;4594;50.994;7.126;2023-09-19T14:09:44;4.97;;;2.70;;
9117;SDS011;4594;50.994;7.126;2023-09-19T14:12:11;3.67;;;3.20;;
9117;SDS011;4594;50.994;7.126;2023-09-19T14:14:37;4.73;;;2.40;;
9117;SDS011;4594;50.994;7.126;2023-09-19T14:17:03;2.90;;;2.23;;
9117;SDS011;4594;50.994;7.126;2023-09-19T14:19:30;5.17;;;1.83;;
9117;SDS011;4594;50.994;7.126;2023-09-19T14:21:56;2.60;;;1.70;;
9117;SDS011;4594;50.994;7.126;2023-09-19T14:24:22;2.20;;;1.73;;
9117;SDS011;4594;50.994;7.126;2023-09-19T14:26:48;2.23;;;1.40;;
9117;SDS011;4594;50.994;7.126;2023-09-19T14:29:14;2.17;;;1.30;;
9117;SDS011;4594;50.994;7.126;2023-09-19T14:31:41;1.80;;;1.70;;
9117;SDS011;4594;50.994;7.126;2023-09-19T14:34:07;2.50;;;1.27;;
9117;SDS011;4594;50.994;7.126;2023-09-19T14:36:37;4.13;;;1.77;;
9117;SDS011;4594;50.994;7.126;2023-09-19T14:39:06;2.33;;;1.37;;
9117;SDS011;4594;50.994;7.126;2023-09-19T14:41:33;5.63;;;1.70;;
9117;SDS011;4594;50.994;7.126;2023-09-19T14:43:59;2.53;;;1.50;;
9117;SDS011;4594;50.994;7.126;2023-09-19T14:46:24;4.17;;;1.93;;
9117;SDS011;4594;50.994;7.126;2023-09-19T14:48:51;2.83;;;2.07;;
9117;SDS011;4594;50.994;7.126;2023-09-19T14:51:17;1.70;;;1.60;;
9117;SDS011;4594;50.994;7.126;2023-09-19T14:53:46;4.40;;;2.27;;
9117;SDS011;4594;50.994;7.126;2023-09-19T14:56:12;3.47;;;2.27;;
9117;SDS011;4594;50.994;7.126;2023-09-19T14:58:43;2.33;;;2.13;;
9117;SDS011;4594;50.994;7.126;2023-09-19T15:01:09;11.50;;;2.30;;
9117;SDS011;4594;50.994;7.126;2023-09-19T15:03:37;1.60;;;1.50;;
9117;SDS011;4594;50.994;7.126;2023-09-19T15:06:05;1.20;;;1.20;;
9117;SDS011;4594;50.994;7.126;2023-09-19T15:08:45;5.97;;;1.60;;
9117;SDS011;4594;50.994;7.126;2023-09-19T15:11:16;2.20;;;1.37;;
9117;SDS011;4594;50.994;7.126;2023-09-19T15:13:43;1.73;;;1.37;;
9117;SDS011;4594;50.994;7.126;2023-09-19T15:16:10;2.00;;;1.40;;
9117;SDS011;4594;50.994;7.126;2023-09-19T15:18:37;1.37;;;1.27;;
9117;SDS011;4594;50.994;7.126;2023-09-19T15:21:06;2.43;;;1.30;;
9117;SDS011;4594;50.994;7.126;2023-09-19T15:23:34;1.73;;;1.37;;
9117;SDS011;4594;50.994;7.126;2023-09-19T15:26:02;2.83;;;1.37;;
9117;SDS011;4594;50.994;7.126;2023-09-19T15:28:39;1.20;;;1.17;;
9117;SDS011;4594;50.994;7.126;2023-09-19T15:31:09;3.10;;;1.97;;
9117;SDS011;4594;50.994;7.126;2023-09-19T15:33:37;4.17;;;1.70;;
9117;SDS011;4594;50.994;7.126;2023-09-19T15:36:07;1.67;;;1.57;;
9117;SDS011;4594;50.994;7.126;2023-09-19T15:41:32;1.60;;;1.50;;
9117;SDS011;4594;50.994;7.126;2023-09-19T15:44:12;1.93;;;1.60;;
9117;SDS011;4594;50.994;7.126;2023-09-19T15:46:44;12.37;;;1.20;;
9117;SDS011;4594;50.994;7.126;2023-09-19T15:49:10;3.57;;;1.67;;
9117;SDS011;4594;50.994;7.126;2023-09-19T15:51:37;2.30;;;1.50;;
9117;SDS011;4594;50.994;7.126;2023-09-19T15:54:08;1.93;;;1.80;;
9117;SDS011;4594;50.994;7.126;2023-09-19T15:56:40;7.60;;;4.80;;
9117;SDS011;4594;50.994;7.126;2023-09-19T15:59:11;6.50;;;5.20;;
9117;SDS011;4594;50.994;7.126;2023-09-19T16:01:38;7.57;;;4.23;;
9117;SDS011;4594;50.994;7.126;2023-09-19T16:04:08;4.47;;;3.07;;
9117;SDS011;4594;50.994;7.126;2023-09-19T16:06:35;2.50;;;2.30;;
9117;SDS011;4594;50.994;7.126;2023-09-19T16:09:03;2.20;;;2.03;;
9117;SDS011;4594;50.994;7.126;2023-09-19T16:11:30;3.40;;;2.27;;
9117;SDS011;4594;50.994;7.126;2023-09-19T16:13:58;4.00;;;2.37;;
9117;SDS011;4594;50.994;7.126;2023-09-19T16:16:25;2.57;;;2.33;;
9117;SDS011;4594;50.994;7.126;2023-09-19T16:18:58;2.47;;;2.27;;
9117;SDS011;4594;50.994;7.126;2023-09-19T16:21:28;2.90;;;1.57;;
9117;SDS011;4594;50.994;7.126;2023-09-19T16:23:56;1.43;;;1.40;;
9117;SDS011;4594;50.994;7.126;2023-09-19T16:26:24;1.97;;;1.87;;
9117;SDS011;4594;50.994;7.126;2023-09-19T16:28:54;3.30;;;2.40;;
9117;SDS011;4594;50.994;7.126;2023-09-19T16:31:25;7.20;;;4.17;;
9117;SDS011;4594;50.994;7.126;2023-09-19T16:33:56;8.83;;;5.03;;
9117;SDS011;4594;50.994;7.126;2023-09-19T16:36:24;4.93;;;3.43;;
9117;SDS011;4594;50.994;7.126;2023-09-19T16:38:50;2.73;;;2.43;;
9117;SDS011;4594;50.994;7.126;2023-09-19T16:41:17;3.20;;;2.77;;
9117;SDS011;4594;50.994;7.126;2023-09-19T16:43:44;2.10;;;2.00;;
9117;SDS011;4594;50.994;7.126;2023-09-19T16:46:11;3.83;;;2.50;;